Norwalk, CT (06860)

10:26 AM EDT on June 02, 2015 (GMT -0400)
KCTDARIE5 | | Change Station
CLOSE
Current Station
Personal Weather Station
Location: Darien, CT
Elevation: 230 ft
Nearby Weather Stations
Active Advisory: Flood Warning Active Notice: Record Report

Elev 230 ft 41.11 °N, 73.50 °W | Updated 3 minutes ago

Overcast
Overcast
50.0 °F
Feels Like 50.0 °F
N
0.0
Wind Variable Wind from WNW
Gusts 2.0 mph

Today
High -- | Low -- °F
--% Chance of Precip.
Yesterday
High -- | Low -- °F
Precip. -- in
5:23 AM 8:20 PM
Full, 100% visible
Pressure 30.14 in
Visibility 4.0 miles
Clouds Mostly Cloudy 400 ft
Overcast 800 ft
Dew Point 50 °F
Humidity 98%
Rainfall 0.07 in
Snow Depth Not available.
UV 2 out of 12
Pollen .50 out of 12
Air Quality Not available.
Flu Activity Local Activity
METAR KHPN 021356Z 03005KT 4SM BR BKN004 OVC008 10/09 A3013 RMK AO2 DZE53 SLP206 P0000 T01000089

More Conditions Fewer Conditions

Pressure 30.14 in
Visibility 4.0 miles
Clouds Mostly Cloudy 400 ft
Overcast 800 ft
Dew Point 50 °F
Humidity 98%
Rainfall 0.07 in
Snow Depth Not available.
UV 2 out of 12
Pollen .50 out of 12
Air Quality Not available.
Flu Activity Local Activity
METAR KHPN 021356Z 03005KT 4SM BR BKN004 OVC008 10/09 A3013 RMK AO2 DZE53 SLP206 P0000 T01000089

More Conditions Fewer Conditions

10-Day Weather Forecast

Almanac

Astronomy

Jun. 02, 2015 Rise Set
Actual Time
Civil Twilight
Nautical Twilight
Astronomical Twilight
Moon
Length of Visible Light
Length of Day
Tomorrow will be .
, % of the Moon is Illuminated

Today's Extremes

State Highs State Lows

Community

WunderPhotos

Upload Photos

1,825,926 photos uploaded!

WunderBlogs® & News

Nearby

Air Quality

  Air Quality AQ Index Pollutant
Not available.

Snow Depth

Station Depth Elevation

Earthquake Activity

City Distance Mag. Time & Date
Minimum magnitude displayed is 2.5.

Coastal Water Temperatures

Place Temperature

Stations

Nearby Weather Stations

Station Location Temp. Windchill Dew Point Humidity Wind Precip. Elev Updated Type
                   
Flood Warning
Statement as of 10:23 AM EDT on June 02, 2015

The Flood Warning is cancelled for
the Still River at Brookfield.
* At 9:45 am Tuesday the stage was 11.8 feet and falling.
* Flood stage is 12.0 feet.


                 Fld observed forecast
                                      2 PM 8 PM 2 am 8 am 2 PM
location stg stg day time Tue Tue Wed Wed Wed

Still River
Brookfield 12.0 11.8 Tue 945 am 11.4 11.0 10.6 10.0 9.6


lat... Lon 4144 7344 4143 7352 4134 7352 4137 7336
      4153 7333 4151 7344